Time;durP1;ratioP1;P1;durP2;ratioP2;P2;SDS_P1;SDS_P2;PMS_P1;PMS_P2;Temp;Humidity;BMP_temperature;BMP_pressure;BME280_temperature;BME280_humidity;BME280_pressure;Samples;Min_cycle;Max_cycle;Signal;HPM_P1;HPM_P2
2023/05/12 00:02:03;;;;;;;0.65;0.65;;;;;;;13.18;79.68;97408.16;5026421;28;20053;-70
2023/05/12 00:04:31;;;;;;;0.75;0.75;;;;;;;13.21;79.55;97406.91;5023321;28;20054;-69
2023/05/12 00:06:58;;;;;;;0.50;0.50;;;;;;;13.20;79.69;97395.38;5027387;28;20053;-70
2023/05/12 00:09:26;;;;;;;0.50;0.50;;;;;;;13.19;79.75;97407.13;5024105;28;20093;-70
2023/05/12 00:11:54;;;;;;;0.60;0.60;;;;;;;13.13;79.83;97402.63;5026823;28;20080;-69
2023/05/12 00:14:21;;;;;;;0.60;0.60;;;;;;;13.15;79.62;97397.91;5023879;28;20048;-70
2023/05/12 00:16:50;;;;;;;0.75;0.75;;;;;;;13.16;79.14;97398.72;5023646;28;20042;-70
2023/05/12 00:19:20;;;;;;;0.98;0.98;;;;;;;13.16;79.17;97402.22;5020474;28;20124;-70
2023/05/12 00:21:47;;;;;;;0.55;0.55;;;;;;;13.15;78.95;97399.75;5023361;28;20053;-70
2023/05/12 00:24:15;;;;;;;0.60;0.60;;;;;;;13.07;78.44;97399.97;5022161;28;20539;-69
2023/05/12 00:26:42;;;;;;;0.73;0.73;;;;;;;13.02;78.77;97407.81;5020034;28;20092;-69
2023/05/12 00:29:10;;;;;;;0.65;0.65;;;;;;;13.02;78.67;97400.63;5029339;28;20038;-69
2023/05/12 00:31:38;;;;;;;0.65;0.65;;;;;;;12.92;78.91;97400.25;5021408;28;20042;-69
2023/05/12 00:34:05;;;;;;;0.63;0.63;;;;;;;12.94;79.08;97403.56;5022575;28;20041;-70
2023/05/12 00:36:34;;;;;;;0.40;0.40;;;;;;;12.95;78.86;97407.88;5026400;28;20050;-69
2023/05/12 00:39:03;;;;;;;0.45;0.45;;;;;;;12.90;78.96;97407.69;5030325;28;20115;-70
2023/05/12 00:41:31;;;;;;;0.63;0.63;;;;;;;12.84;79.24;97409.38;5027706;28;20049;-70
2023/05/12 00:43:58;;;;;;;0.50;0.50;;;;;;;12.84;79.33;97401.34;5027429;28;20045;-70
2023/05/12 00:46:26;;;;;;;0.60;0.60;;;;;;;12.76;79.82;97417.66;5025919;28;20056;-69
2023/05/12 00:48:54;;;;;;;0.50;0.50;;;;;;;12.73;79.84;97414.56;5024559;28;20404;-69
2023/05/12 00:51:21;;;;;;;0.60;0.60;;;;;;;12.67;79.98;97410.03;5028199;28;20347;-69
2023/05/12 00:53:50;;;;;;;0.55;0.55;;;;;;;12.64;80.13;97415.84;5028239;28;20041;-71
2023/05/12 00:56:18;;;;;;;0.50;0.50;;;;;;;12.63;80.01;97408.84;5022317;28;20382;-70
2023/05/12 00:58:46;;;;;;;0.60;0.60;;;;;;;12.58;80.29;97414.81;5025606;28;20128;-69
2023/05/12 01:01:15;;;;;;;0.70;0.70;;;;;;;12.49;80.55;97416.09;5021661;28;20042;-70
2023/05/12 01:03:44;;;;;;;0.60;0.60;;;;;;;12.39;80.90;97407.69;5031178;28;20523;-70
2023/05/12 01:06:13;;;;;;;0.45;0.45;;;;;;;12.37;81.22;97399.03;5025916;28;20100;-70
2023/05/12 01:08:41;;;;;;;0.70;0.70;;;;;;;12.37;81.08;97397.19;5024665;28;20080;-69
2023/05/12 01:11:10;;;;;;;0.47;0.47;;;;;;;12.35;81.22;97398.44;5022039;28;20045;-69
2023/05/12 01:13:40;;;;;;;0.80;0.80;;;;;;;12.31;81.20;97398.03;5029480;28;20091;-70
2023/05/12 01:16:09;;;;;;;0.63;0.63;;;;;;;12.26;81.43;97400.50;5030480;28;20041;-70
2023/05/12 01:18:38;;;;;;;0.68;0.68;;;;;;;12.17;81.62;97408.97;5028468;28;20045;-70
2023/05/12 01:21:06;;;;;;;0.60;0.60;;;;;;;12.16;81.54;97405.47;5023287;28;20038;-70
2023/05/12 01:23:36;;;;;;;0.88;0.88;;;;;;;12.10;81.54;97406.31;5045731;28;20504;-69
2023/05/12 01:26:06;;;;;;;0.65;0.65;;;;;;;12.07;81.84;97407.56;5025559;28;20041;-70
2023/05/12 01:28:36;;;;;;;0.60;0.60;;;;;;;11.99;82.05;97404.28;5022583;28;20539;-69
2023/05/12 01:31:05;;;;;;;0.70;0.70;;;;;;;12.07;81.54;97402.19;5045272;28;20124;-69
2023/05/12 01:33:34;;;;;;;0.70;0.70;;;;;;;12.09;81.41;97408.16;5025399;28;20056;-69
2023/05/12 01:36:02;;;;;;;0.47;0.47;;;;;;;12.08;81.49;97406.53;5017981;28;20037;-70
2023/05/12 01:38:30;;;;;;;0.60;0.60;;;;;;;12.08;81.36;97400.34;5022475;28;20136;-69
2023/05/12 01:40:57;;;;;;;0.50;0.50;;;;;;;12.05;81.38;97412.28;5042956;28;20400;-69
2023/05/12 01:43:27;;;;;;;0.63;0.63;;;;;;;11.80;82.53;97405.94;5019567;28;20543;-69
2023/05/12 01:45:54;;;;;;;0.63;0.63;;;;;;;11.63;82.95;97410.03;5022642;28;20038;-69
2023/05/12 01:48:22;;;;;;;0.73;0.73;;;;;;;11.67;82.66;97412.09;5044474;28;20166;-70
2023/05/12 01:50:49;;;;;;;0.68;0.68;;;;;;;11.56;83.43;97411.88;5020476;28;20057;-70
2023/05/12 01:53:20;;;;;;;0.70;0.70;;;;;;;11.55;83.20;97413.72;5027123;28;20076;-69
2023/05/12 01:55:47;;;;;;;0.60;0.60;;;;;;;11.40;83.05;97416.63;5026347;28;20049;-69
2023/05/12 01:58:15;;;;;;;0.70;0.70;;;;;;;11.50;82.13;97424.22;5043254;28;20046;-69
2023/05/12 02:00:45;;;;;;;0.50;0.50;;;;;;;11.49;81.96;97417.22;5025892;28;20067;-69
2023/05/12 02:03:16;;;;;;;0.60;0.60;;;;;;;11.48;81.85;97417.44;5044238;28;20042;-69
2023/05/12 02:05:44;;;;;;;0.60;0.60;;;;;;;11.53;81.19;97417.63;5026098;28;20492;-69
2023/05/12 02:08:12;;;;;;;0.10;0.10;;;;;;;11.55;80.80;97421.75;5042678;28;20436;-69
2023/05/12 02:10:39;;;;;;;0.52;0.52;;;;;;;11.51;80.87;97407.16;5019862;28;20037;-69
2023/05/12 02:13:07;;;;;;;0.52;0.52;;;;;;;11.46;80.85;97414.97;5037532;28;20045;-69
2023/05/12 02:15:35;;;;;;;0.57;0.57;;;;;;;11.41;80.70;97412.09;5029632;28;20087;-68
2023/05/12 02:18:04;;;;;;;0.57;0.57;;;;;;;11.30;81.31;97410.84;5042223;28;20508;-69
2023/05/12 02:20:31;;;;;;;0.77;0.77;;;;;;;11.13;81.67;97417.56;5025554;28;20564;-70
2023/05/12 02:23:00;;;;;;;0.55;0.55;;;;;;;11.09;82.36;97408.34;5018345;28;20038;-69
2023/05/12 02:25:30;;;;;;;0.68;0.68;;;;;;;10.98;82.62;97406.25;5038313;28;20037;-69
2023/05/12 02:27:57;;;;;;;0.50;0.50;;;;;;;11.15;81.85;97412.84;5024233;28;20042;-69
2023/05/12 02:30:25;;;;;;;0.50;0.50;;;;;;;10.93;82.67;97414.84;5045442;28;20067;-69
2023/05/12 02:32:52;;;;;;;0.73;0.73;;;;;;;10.88;82.80;97412.00;5039343;28;20095;-69
2023/05/12 02:35:21;;;;;;;0.77;0.77;;;;;;;11.00;82.48;97414.91;5025665;28;20045;-69
2023/05/12 02:37:49;;;;;;;0.85;0.85;;;;;;;10.99;82.48;97410.56;5017280;28;20045;-69
2023/05/12 02:40:16;;;;;;;0.10;0.10;;;;;;;10.99;82.33;97418.59;5028222;28;20701;-69
2023/05/12 02:42:44;;;;;;;0.65;0.65;;;;;;;11.17;81.48;97416.16;5024280;28;20112;-69
2023/05/12 02:45:12;;;;;;;1.10;1.10;;;;;;;11.20;80.92;97407.75;5044841;28;20057;-70
2023/05/12 02:47:40;;;;;;;0.70;0.70;;;;;;;11.21;80.82;97412.03;5026578;28;20073;-69
2023/05/12 02:50:09;;;;;;;0.60;0.60;;;;;;;11.00;81.51;97417.56;5027218;28;20045;-69
2023/05/12 02:52:38;;;;;;;0.65;0.65;;;;;;;10.88;81.99;97416.50;5018675;28;20048;-70
2023/05/12 02:55:06;;;;;;;0.68;0.68;;;;;;;10.83;82.06;97409.09;5028021;28;20051;-69
2023/05/12 02:57:34;;;;;;;0.60;0.60;;;;;;;10.78;82.55;97411.53;5026797;28;20145;-69
2023/05/12 03:00:04;;;;;;;0.60;0.60;;;;;;;10.89;82.14;97407.47;5019418;28;20077;-69
2023/05/12 03:02:34;;;;;;;0.75;0.75;;;;;;;10.94;81.77;97415.69;5045988;28;20053;-69
2023/05/12 03:05:03;;;;;;;0.63;0.63;;;;;;;10.86;81.62;97411.34;5026561;28;20088;-69
2023/05/12 03:07:30;;;;;;;0.52;0.52;;;;;;;10.87;81.88;97409.50;5027386;28;20054;-69
2023/05/12 03:10:00;;;;;;;0.50;0.50;;;;;;;10.81;82.57;97412.97;5027539;28;20042;-69
2023/05/12 03:12:28;;;;;;;0.65;0.65;;;;;;;10.66;83.17;97411.28;5018799;28;20045;-69
2023/05/12 03:14:57;;;;;;;0.65;0.65;;;;;;;10.61;83.61;97411.06;5028607;28;20053;-69
2023/05/12 03:17:26;;;;;;;0.73;0.73;;;;;;;10.57;83.62;97407.16;5027088;28;20053;-69
2023/05/12 03:19:53;;;;;;;0.73;0.73;;;;;;;10.51;83.87;97401.78;5026956;28;20543;-69
2023/05/12 03:22:21;;;;;;;0.70;0.70;;;;;;;10.52;83.99;97404.25;5026607;28;20038;-70
2023/05/12 03:24:48;;;;;;;0.70;0.70;;;;;;;10.60;83.89;97400.56;5014215;28;20042;-69
2023/05/12 03:27:17;;;;;;;0.20;0.20;;;;;;;10.68;83.16;97405.75;5026801;28;20451;-69
2023/05/12 03:29:45;;;;;;;0.70;0.70;;;;;;;10.83;82.27;97405.59;5023655;28;20049;-70
2023/05/12 03:32:13;;;;;;;0.60;0.60;;;;;;;10.89;82.03;97415.47;5023050;28;20038;-70
2023/05/12 03:34:40;;;;;;;0.75;0.75;;;;;;;10.96;81.08;97402.97;5022683;28;20042;-70
2023/05/12 03:37:08;;;;;;;0.65;0.65;;;;;;;10.68;82.17;97405.75;5028397;28;20064;-69
2023/05/12 03:39:36;;;;;;;0.10;0.10;;;;;;;10.72;82.36;97407.00;5026159;28;20389;-69
2023/05/12 03:42:04;;;;;;;0.60;0.60;;;;;;;10.68;81.88;97410.28;5018166;28;20394;-69
2023/05/12 03:44:32;;;;;;;0.77;0.77;;;;;;;10.58;82.62;97403.47;5022520;28;20125;-69
2023/05/12 03:47:00;;;;;;;0.60;0.60;;;;;;;10.65;82.34;97403.47;5040740;28;20061;-69
2023/05/12 03:49:28;;;;;;;0.70;0.70;;;;;;;10.67;82.31;97398.78;5022468;28;20046;-69
2023/05/12 03:51:55;;;;;;;1.10;1.10;;;;;;;10.72;82.31;97404.31;5025639;28;20125;-69
2023/05/12 03:54:24;;;;;;;0.73;0.73;;;;;;;10.62;82.72;97403.88;5019353;28;20735;-69
2023/05/12 03:56:52;;;;;;;0.80;0.80;;;;;;;10.59;83.15;97401.59;5023788;28;20045;-69
2023/05/12 03:59:20;;;;;;;0.77;0.77;;;;;;;10.63;82.81;97403.69;5023285;28;20033;-70
2023/05/12 04:01:49;;;;;;;1.08;1.00;;;;;;;10.69;82.76;97398.56;5020735;28;20492;-70
2023/05/12 04:04:17;;;;;;;0.80;0.80;;;;;;;10.76;82.15;97399.41;5042245;28;20096;-69
2023/05/12 04:06:45;;;;;;;0.63;0.63;;;;;;;10.80;82.05;97401.47;5027091;28;20405;-69
2023/05/12 04:09:12;;;;;;;0.60;0.60;;;;;;;10.82;81.97;97402.09;5041625;28;20041;-69
2023/05/12 04:11:40;;;;;;;0.80;0.80;;;;;;;10.57;83.22;97396.47;5028807;28;20033;-69
2023/05/12 04:14:08;;;;;;;0.70;0.70;;;;;;;10.52;83.74;97392.75;5025877;28;20096;-69
2023/05/12 04:16:36;;;;;;;0.57;0.57;;;;;;;10.53;83.72;97395.22;5025206;28;20112;-72
2023/05/12 04:19:05;;;;;;;0.90;0.90;;;;;;;10.68;83.48;97394.25;5026598;28;20136;-70
2023/05/12 04:21:35;;;;;;;0.75;0.75;;;;;;;10.80;83.17;97395.31;5047222;28;20069;-71
2023/05/12 04:24:03;;;;;;;0.50;0.50;;;;;;;10.77;83.35;97403.72;5041701;28;20045;-71
2023/05/12 04:26:36;;;;;;;0.77;0.77;;;;;;;10.93;82.63;97398.84;5046418;28;20136;-70
2023/05/12 04:29:04;;;;;;;0.57;0.57;;;;;;;10.77;83.53;97399.22;5043625;28;20100;-70
2023/05/12 04:31:31;;;;;;;0.65;0.65;;;;;;;10.77;83.85;97401.06;5045195;28;20045;-71
2023/05/12 04:34:00;;;;;;;0.50;0.50;;;;;;;10.84;83.78;97397.38;5021357;28;20120;-71
2023/05/12 04:36:30;;;;;;;0.60;0.60;;;;;;;10.89;83.44;97394.13;5025815;28;20038;-70
2023/05/12 04:38:58;;;;;;;0.60;0.60;;;;;;;10.95;83.15;97402.13;5028553;28;20042;-71
2023/05/12 04:41:26;;;;;;;0.68;0.68;;;;;;;10.94;82.91;97403.16;5023329;28;20073;-72
2023/05/12 04:43:54;;;;;;;0.65;0.65;;;;;;;10.89;83.51;97404.81;5022849;28;20084;-71
2023/05/12 04:46:25;;;;;;;0.85;0.85;;;;;;;10.95;82.97;97412.00;5027481;28;20053;-72
2023/05/12 04:48:53;;;;;;;0.98;0.98;;;;;;;10.93;83.35;97411.38;5025800;28;20135;-72
2023/05/12 04:51:21;;;;;;;0.68;0.68;;;;;;;11.04;82.60;97411.59;5032124;28;20445;-71
2023/05/12 04:53:49;;;;;;;0.60;0.60;;;;;;;10.95;82.70;97409.31;5025541;28;20584;-72
2023/05/12 04:56:18;;;;;;;0.60;0.60;;;;;;;10.85;83.31;97415.06;5019102;28;20046;-72
2023/05/12 04:58:46;;;;;;;0.88;0.88;;;;;;;10.97;82.73;97417.97;5026955;28;20068;-71
2023/05/12 05:01:17;;;;;;;0.80;0.80;;;;;;;10.93;82.87;97416.72;5028902;28;20037;-72
2023/05/12 05:03:44;;;;;;;0.68;0.68;;;;;;;10.90;82.92;97409.91;5022778;28;20155;-72
2023/05/12 05:06:13;;;;;;;0.82;0.82;;;;;;;10.88;83.32;97416.50;5039374;28;20133;-73
2023/05/12 05:08:41;;;;;;;0.68;0.68;;;;;;;10.92;83.14;97421.22;5027734;28;20064;-72
2023/05/12 05:11:13;;;;;;;0.70;0.70;;;;;;;10.99;82.77;97421.25;5023525;28;20041;-72
2023/05/12 05:13:42;;;;;;;0.57;0.57;;;;;;;11.13;82.34;97416.75;5023224;28;20152;-71
2023/05/12 05:16:09;;;;;;;0.57;0.57;;;;;;;11.16;82.31;97411.00;5031581;28;20049;-71
2023/05/12 05:18:40;;;;;;;0.75;0.75;;;;;;;11.20;82.41;97410.41;5023947;28;20034;-71
2023/05/12 05:21:08;;;;;;;0.65;0.65;;;;;;;11.20;82.45;97422.94;5024024;28;20512;-71
2023/05/12 05:23:36;;;;;;;0.63;0.63;;;;;;;11.18;82.56;97422.31;5023391;28;20137;-69
2023/05/12 05:26:04;;;;;;;0.50;0.50;;;;;;;11.18;82.82;97417.81;5039943;28;20045;-70
2023/05/12 05:28:33;;;;;;;0.75;0.75;;;;;;;11.22;82.68;97413.69;5024227;28;20394;-68
2023/05/12 05:31:00;;;;;;;0.65;0.65;;;;;;;11.25;82.65;97423.16;5023206;28;20128;-69
2023/05/12 05:33:28;;;;;;;0.50;0.50;;;;;;;11.34;82.48;97422.75;5020411;28;20042;-69
2023/05/12 05:35:56;;;;;;;0.75;0.75;;;;;;;11.45;81.77;97424.00;5023652;28;20045;-70
2023/05/12 05:38:24;;;;;;;0.68;0.68;;;;;;;11.48;82.03;97428.94;5025590;28;20164;-70
2023/05/12 05:40:52;;;;;;;0.70;0.70;;;;;;;11.55;81.84;97418.25;5042936;28;20569;-70
2023/05/12 05:43:23;;;;;;;0.60;0.60;;;;;;;11.59;81.85;97432.88;5022907;28;20091;-70
2023/05/12 05:45:52;;;;;;;0.50;0.50;;;;;;;11.60;82.13;97421.97;5044422;28;20041;-70
2023/05/12 05:48:21;;;;;;;0.65;0.65;;;;;;;11.63;81.66;97429.56;5025928;28;20046;-70
2023/05/12 05:50:50;;;;;;;0.55;0.55;;;;;;;11.68;81.83;97435.13;5020957;28;20041;-70
2023/05/12 05:53:18;;;;;;;0.60;0.60;;;;;;;11.80;81.60;97439.88;5021567;28;20088;-69
2023/05/12 05:55:47;;;;;;;0.80;0.80;;;;;;;11.90;80.77;97438.44;5027587;28;20042;-69
2023/05/12 05:58:15;;;;;;;0.13;0.13;;;;;;;11.88;81.51;97432.47;5020690;28;20456;-68
2023/05/12 06:00:43;;;;;;;0.82;0.82;;;;;;;12.00;81.13;97433.50;5015650;28;20124;-69
2023/05/12 06:03:12;;;;;;;0.77;0.77;;;;;;;12.06;81.14;97440.69;5021916;28;20033;-69
2023/05/12 06:05:41;;;;;;;0.50;0.50;;;;;;;12.08;81.21;97435.94;5022247;28;20034;-71
2023/05/12 06:08:11;;;;;;;0.70;0.70;;;;;;;12.25;80.56;97441.69;5043192;28;20104;-71
2023/05/12 06:10:39;;;;;;;0.75;0.75;;;;;;;12.22;81.30;97447.47;5017360;28;20069;-72
2023/05/12 06:13:07;;;;;;;0.70;0.70;;;;;;;12.16;81.16;97440.25;5024570;28;20045;-71
2023/05/12 06:15:34;;;;;;;0.52;0.52;;;;;;;12.15;81.50;97451.97;5019861;28;20064;-71
2023/05/12 06:18:02;;;;;;;0.93;0.93;;;;;;;12.31;80.74;97450.75;5020219;28;20053;-71
2023/05/12 06:20:31;;;;;;;0.68;0.68;;;;;;;12.36;80.77;97456.28;5021289;28;20046;-69
2023/05/12 06:22:59;;;;;;;0.63;0.63;;;;;;;12.42;80.12;97458.94;5021530;28;20052;-70
2023/05/12 06:25:26;;;;;;;0.70;0.70;;;;;;;12.47;80.20;97461.81;5027110;28;20053;-70
2023/05/12 06:27:54;;;;;;;0.82;0.82;;;;;;;12.57;79.93;97463.22;5021636;28;20033;-69
2023/05/12 06:30:22;;;;;;;0.75;0.75;;;;;;;12.73;79.77;97460.09;5018079;28;20053;-69
2023/05/12 06:32:49;;;;;;;0.80;0.80;;;;;;;12.77;79.10;97464.81;5021332;28;20048;-71
2023/05/12 06:35:17;;;;;;;0.70;0.70;;;;;;;12.87;79.02;97459.81;5022750;28;20037;-70
2023/05/12 06:37:48;;;;;;;0.52;0.52;;;;;;;13.03;78.71;97453.16;5021225;28;20049;-69
2023/05/12 06:40:16;;;;;;;0.68;0.68;;;;;;;13.11;77.90;97463.63;5022029;28;20052;-69
2023/05/12 06:42:44;;;;;;;0.20;0.20;;;;;;;13.13;77.68;97460.75;5027801;28;20435;-69
2023/05/12 06:45:18;;;;;;;0.60;0.60;;;;;;;13.38;77.31;97455.50;5025094;28;20041;-69
2023/05/12 06:47:46;;;;;;;0.30;0.30;;;;;;;13.45;76.81;97458.94;5019772;28;20454;-69
2023/05/12 06:50:14;;;;;;;0.60;0.60;;;;;;;13.46;76.45;97461.41;5025828;28;20045;-72
2023/05/12 06:52:41;;;;;;;0.55;0.55;;;;;;;13.47;75.61;97456.88;5024573;28;20042;-70
2023/05/12 06:55:10;;;;;;;0.77;0.77;;;;;;;13.44;75.73;97460.81;5024434;28;20053;-69
2023/05/12 06:57:38;;;;;;;0.50;0.50;;;;;;;13.48;75.96;97470.06;5020791;28;20053;-70
2023/05/12 07:00:07;;;;;;;0.70;0.70;;;;;;;13.63;75.71;97471.59;5018189;28;20042;-69
2023/05/12 07:02:34;;;;;;;0.63;0.63;;;;;;;13.70;75.15;97467.03;5021004;28;20074;-69
2023/05/12 07:05:02;;;;;;;0.60;0.60;;;;;;;13.78;74.74;97464.09;5024310;28;20049;-70
2023/05/12 07:07:30;;;;;;;0.70;0.70;;;;;;;13.91;74.21;97451.38;5019205;28;20046;-69
2023/05/12 07:09:57;;;;;;;0.52;0.52;;;;;;;14.07;73.15;97459.91;5025028;28;20038;-69
2023/05/12 07:12:26;;;;;;;0.93;0.93;;;;;;;14.11;72.39;97458.44;5017486;28;20041;-70
2023/05/12 07:14:53;;;;;;;0.55;0.55;;;;;;;14.22;73.02;97458.53;5023289;28;20037;-70
2023/05/12 07:17:21;;;;;;;0.50;0.50;;;;;;;14.40;71.28;97465.03;5027710;28;20498;-70
2023/05/12 07:19:49;;;;;;;0.70;0.70;;;;;;;14.58;70.63;97460.47;5025222;28;20069;-72
2023/05/12 07:22:16;;;;;;;0.60;0.60;;;;;;;14.75;69.93;97462.56;5025780;28;20042;-71
2023/05/12 07:24:44;;;;;;;0.50;0.50;;;;;;;14.98;68.58;97460.84;5020952;28;21500;-72
2023/05/12 07:27:11;;;;;;;0.60;0.60;;;;;;;15.18;67.33;97452.50;5015253;28;20046;-71
2023/05/12 07:29:40;;;;;;;0.65;0.65;;;;;;;15.33;67.07;97460.19;5020325;28;20084;-71
2023/05/12 07:32:08;;;;;;;0.57;0.57;;;;;;;15.40;64.15;97459.03;5022120;28;20053;-71
2023/05/12 07:34:36;;;;;;;0.80;0.80;;;;;;;15.36;63.46;97451.66;5017255;28;20045;-71
2023/05/12 07:37:05;;;;;;;0.70;0.70;;;;;;;15.46;62.95;97456.50;5018832;28;20103;-71
2023/05/12 07:39:33;;;;;;;0.52;0.52;;;;;;;15.52;62.11;97459.06;5020644;28;20060;-71
2023/05/12 07:42:00;;;;;;;0.55;0.55;;;;;;;15.47;61.45;97450.06;5029424;28;20072;-71
2023/05/12 07:44:28;;;;;;;0.50;0.50;;;;;;;15.42;62.86;97454.25;5031541;28;20045;-71
2023/05/12 07:46:57;;;;;;;0.60;0.60;;;;;;;15.60;62.28;97453.41;5022140;28;20068;-71
2023/05/12 07:49:24;;;;;;;0.75;0.75;;;;;;;15.70;62.00;97459.03;5029430;28;20049;-71
2023/05/12 07:51:52;;;;;;;0.60;0.60;;;;;;;15.68;61.13;97461.13;5032527;28;20045;-71
2023/05/12 07:54:20;;;;;;;0.70;0.70;;;;;;;16.04;61.03;97457.47;5028107;28;20040;-71
2023/05/12 07:56:47;;;;;;;0.50;0.50;;;;;;;16.35;60.13;97450.09;5027888;28;20088;-71
2023/05/12 07:59:15;;;;;;;0.50;0.50;;;;;;;16.49;58.58;97451.50;5026932;28;20111;-71
2023/05/12 08:01:42;;;;;;;0.95;0.95;;;;;;;16.50;58.67;97453.16;5026488;28;20224;-71
2023/05/12 08:04:11;;;;;;;0.52;0.52;;;;;;;16.52;59.26;97446.44;5023828;28;20061;-71
2023/05/12 08:06:39;;;;;;;0.50;0.50;;;;;;;16.87;57.17;97440.22;5025661;28;20041;-71
2023/05/12 08:09:07;;;;;;;0.60;0.60;;;;;;;17.04;56.52;97448.38;5029768;28;20135;-71
2023/05/12 08:11:34;;;;;;;0.50;0.50;;;;;;;16.82;57.25;97451.69;5030233;28;20124;-71
2023/05/12 08:14:02;;;;;;;0.63;0.63;;;;;;;17.13;55.87;97445.03;5027665;28;20046;-71
2023/05/12 08:16:29;;;;;;;0.38;0.38;;;;;;;16.75;56.28;97460.97;5027092;28;20054;-71
2023/05/12 08:18:57;;;;;;;0.43;0.43;;;;;;;16.90;55.40;97450.53;5023780;28;20053;-72
2023/05/12 08:21:27;;;;;;;0.43;0.43;;;;;;;16.82;55.86;97440.91;5025917;28;20045;-71
2023/05/12 08:23:55;;;;;;;0.50;0.50;;;;;;;16.99;55.87;97453.66;5027645;28;20082;-71
2023/05/12 08:26:23;;;;;;;0.40;0.40;;;;;;;16.50;56.05;97462.06;5040132;28;20053;-72
2023/05/12 08:28:51;;;;;;;0.10;0.10;;;;;;;16.62;55.63;97461.22;5029798;28;20435;-71
2023/05/12 08:31:19;;;;;;;0.45;0.45;;;;;;;16.75;55.69;97451.03;5023034;28;20046;-71
2023/05/12 08:33:47;;;;;;;0.40;0.40;;;;;;;17.20;55.37;97448.44;5026936;28;20500;-71
2023/05/12 08:36:27;;;;;;;0.50;0.50;;;;;;;17.61;53.86;97441.91;5023445;28;20054;-71
2023/05/12 08:38:55;;;;;;;0.60;0.60;;;;;;;17.89;53.27;97449.16;5027697;28;20152;-71
2023/05/12 08:41:28;;;;;;;0.40;0.40;;;;;;;18.03;52.22;97449.69;5023350;28;20050;-71
2023/05/12 08:43:56;;;;;;;0.40;0.40;;;;;;;17.87;51.94;97451.28;5027349;28;20033;-71
2023/05/12 08:46:25;;;;;;;0.10;0.10;;;;;;;17.84;52.19;97451.81;5021955;28;20431;-72
2023/05/12 08:48:53;;;;;;;0.45;0.45;;;;;;;17.91;52.03;97440.81;5032840;28;20072;-71
2023/05/12 08:51:22;;;;;;;0.45;0.45;;;;;;;17.98;51.42;97447.69;5031002;28;20041;-72
2023/05/12 08:53:53;;;;;;;0.60;0.60;;;;;;;17.76;52.39;97454.88;5020119;28;20513;-72
2023/05/12 08:56:23;;;;;;;0.45;0.45;;;;;;;17.88;53.16;97450.22;5028323;28;20045;-71
2023/05/12 08:58:55;;;;;;;0.47;0.47;;;;;;;17.86;52.81;97456.94;5016919;28;20045;-72
2023/05/12 09:01:23;;;;;;;0.10;0.10;;;;;;;17.89;52.91;97456.44;5036783;28;20471;-72
2023/05/12 09:03:51;;;;;;;0.50;0.50;;;;;;;17.91;53.88;97457.03;5027994;28;20128;-72
2023/05/12 09:06:19;;;;;;;0.30;0.30;;;;;;;17.89;54.48;97459.97;5030623;28;20095;-72
2023/05/12 09:08:46;;;;;;;0.40;0.40;;;;;;;17.81;54.61;97454.97;5026584;28;20034;-72
2023/05/12 09:11:16;;;;;;;0.50;0.50;;;;;;;17.76;54.53;97452.19;5022803;28;20041;-71
2023/05/12 09:13:50;;;;;;;0.50;0.50;;;;;;;17.70;55.14;97461.25;5025862;28;20045;-71
2023/05/12 09:16:20;;;;;;;0.50;0.50;;;;;;;17.63;55.08;97449.81;5027009;28;20041;-72
2023/05/12 09:18:50;;;;;;;0.40;0.40;;;;;;;17.60;56.03;97458.34;5016594;28;20125;-72
2023/05/12 09:21:18;;;;;;;0.40;0.40;;;;;;;17.56;56.21;97458.00;5016037;28;20060;-71
2023/05/12 09:23:55;;;;;;;0.08;0.08;;;;;;;17.50;56.09;97463.56;5027085;28;20440;-72
2023/05/12 09:26:25;;;;;;;0.40;0.40;;;;;;;17.47;55.43;97455.94;5023278;28;20050;-71
2023/05/12 09:28:54;;;;;;;0.60;0.60;;;;;;;17.46;55.82;97459.69;5018084;28;20769;-71
2023/05/12 09:31:23;;;;;;;0.50;0.50;;;;;;;17.48;55.76;97461.09;5025285;28;20092;-72
2023/05/12 09:33:51;;;;;;;0.55;0.55;;;;;;;17.50;56.14;97459.00;5025553;28;20124;-72
2023/05/12 09:36:20;;;;;;;0.38;0.38;;;;;;;17.51;56.11;97459.81;5020650;28;20088;-72
2023/05/12 09:38:58;;;;;;;0.45;0.45;;;;;;;17.52;56.03;97464.16;5026154;28;20038;-72
2023/05/12 09:41:27;;;;;;;0.40;0.40;;;;;;;17.52;55.79;97458.75;5023013;28;20053;-72
2023/05/12 09:43:55;;;;;;;0.40;0.40;;;;;;;17.52;55.37;97456.06;5031441;28;20037;-72
2023/05/12 09:46:24;;;;;;;0.50;0.50;;;;;;;17.51;54.65;97467.91;5021183;28;20073;-72
2023/05/12 09:48:55;;;;;;;0.47;0.47;;;;;;;17.50;54.82;97469.78;5021639;28;20049;-72
2023/05/12 09:51:23;;;;;;;0.60;0.60;;;;;;;17.51;54.90;97466.03;5027191;28;20088;-72
2023/05/12 09:53:51;;;;;;;0.50;0.50;;;;;;;17.52;54.11;97467.66;5024763;28;20100;-72
2023/05/12 09:56:20;;;;;;;0.47;0.47;;;;;;;17.51;54.09;97467.91;5016720;28;20092;-72
2023/05/12 09:58:49;;;;;;;0.52;0.52;;;;;;;17.55;54.82;97474.44;5021578;28;20045;-70
2023/05/12 10:01:18;;;;;;;0.65;0.65;;;;;;;17.63;55.22;97466.00;5019977;28;20045;-70
2023/05/12 10:03:52;;;;;;;0.43;0.43;;;;;;;17.78;54.46;97465.44;5023407;28;20046;-70
2023/05/12 10:06:22;;;;;;;0.47;0.47;;;;;;;17.95;52.67;97463.59;5028860;28;20042;-70
2023/05/12 10:08:53;;;;;;;0.45;0.45;;;;;;;18.07;50.92;97458.91;5024994;28;20057;-71
2023/05/12 10:11:22;;;;;;;0.40;0.40;;;;;;;18.12;49.64;97461.69;5023512;28;20091;-70
2023/05/12 10:13:52;;;;;;;0.30;0.30;;;;;;;18.12;48.88;97455.47;5028161;28;20096;-70
2023/05/12 10:16:20;;;;;;;0.40;0.40;;;;;;;17.99;48.81;97462.03;5022082;28;20037;-70
2023/05/12 10:18:48;;;;;;;0.50;0.50;;;;;;;17.98;48.16;97469.31;5025115;28;20077;-70
2023/05/12 10:21:16;;;;;;;0.43;0.43;;;;;;;17.79;47.40;97461.69;5028631;28;20037;-71
2023/05/12 10:23:44;;;;;;;0.22;0.22;;;;;;;17.82;48.62;97461.19;5024305;28;20054;-71
2023/05/12 10:26:14;;;;;;;0.50;0.50;;;;;;;17.71;48.00;97462.09;5025679;28;20046;-70
2023/05/12 10:28:42;;;;;;;0.43;0.43;;;;;;;17.48;47.93;97460.28;5025938;28;20043;-70
2023/05/12 10:31:11;;;;;;;0.30;0.30;;;;;;;17.64;48.80;97464.13;5029747;28;20041;-71
2023/05/12 10:33:38;;;;;;;0.50;0.40;;;;;;;17.78;48.48;97460.84;5024881;28;20073;-70
2023/05/12 10:36:16;;;;;;;0.32;0.32;;;;;;;17.93;48.81;97463.84;5023282;28;20041;-70
2023/05/12 10:38:48;;;;;;;0.40;0.40;;;;;;;18.01;47.67;97459.91;5020911;28;20038;-70
2023/05/12 10:41:16;;;;;;;0.50;0.50;;;;;;;18.12;48.72;97458.19;5023029;28;20095;-70
2023/05/12 10:43:48;;;;;;;0.40;0.40;;;;;;;18.23;48.88;97466.22;5019337;28;20045;-70
2023/05/12 10:46:19;;;;;;;0.32;0.32;;;;;;;18.32;49.43;97461.19;5022156;28;20075;-70
2023/05/12 10:48:53;;;;;;;0.50;0.50;;;;;;;18.37;49.26;97461.28;5022751;28;20124;-70
2023/05/12 10:51:23;;;;;;;0.40;0.40;;;;;;;18.39;48.54;97466.44;5026547;28;20093;-70
2023/05/12 10:53:57;;;;;;;0.32;0.32;;;;;;;18.48;48.17;97460.34;5027832;28;20038;-69
2023/05/12 10:56:28;;;;;;;0.40;0.40;;;;;;;18.52;48.07;97461.50;5025604;28;20044;-70
2023/05/12 10:59:06;;;;;;;0.20;0.20;;;;;;;18.76;47.71;97454.03;5024502;28;20429;-70
2023/05/12 11:01:36;;;;;;;0.55;0.55;;;;;;;18.85;47.24;97451.72;5025927;28;20128;-71
2023/05/12 11:04:15;;;;;;;0.55;0.55;;;;;;;18.86;47.21;97458.75;5024382;28;20382;-71
2023/05/12 11:06:44;;;;;;;0.10;0.10;;;;;;;18.81;47.30;97459.50;5030224;28;20509;-69
2023/05/12 11:09:14;;;;;;;0.45;0.45;;;;;;;18.54;47.73;97464.78;5023821;28;20046;-69
2023/05/12 11:11:43;;;;;;;0.43;0.43;;;;;;;18.63;47.36;97463.31;5024373;28;20046;-69
2023/05/12 11:14:12;;;;;;;0.38;0.38;;;;;;;18.46;46.76;97458.97;5011954;28;20065;-69
2023/05/12 11:16:43;;;;;;;0.30;0.30;;;;;;;18.49;47.55;97462.00;5030942;28;20100;-69
2023/05/12 11:19:11;;;;;;;0.50;0.50;;;;;;;18.55;47.00;97463.72;5023531;28;20410;-71
2023/05/12 11:21:39;;;;;;;0.43;0.43;;;;;;;18.63;46.57;97457.09;5037277;28;20049;-69
2023/05/12 11:24:09;;;;;;;0.40;0.40;;;;;;;18.59;46.63;97464.03;5023425;28;20045;-69
2023/05/12 11:26:40;;;;;;;0.40;0.40;;;;;;;18.55;47.21;97465.59;5031430;28;20041;-71
2023/05/12 11:29:07;;;;;;;0.88;0.88;;;;;;;18.68;46.28;97462.59;5029681;28;20069;-71
2023/05/12 11:31:35;;;;;;;0.40;0.40;;;;;;;18.79;46.79;97464.31;5030650;28;20128;-71
2023/05/12 11:34:04;;;;;;;0.45;0.45;;;;;;;18.82;45.59;97466.53;5030208;28;20061;-69
2023/05/12 11:36:41;;;;;;;0.40;0.40;;;;;;;18.99;45.91;97472.75;5024681;28;20080;-69
2023/05/12 11:39:13;;;;;;;0.40;0.40;;;;;;;19.15;45.91;97467.50;5033624;28;20049;-71
2023/05/12 11:41:40;;;;;;;;;;;;;;;19.20;45.39;97470.28;5028965;28;20045;-69